createdAt,value
2019-05-20T00:01:04.023Z,13.15
2019-05-20T00:03:32.235Z,13.21
2019-05-20T00:06:00.617Z,13.15
2019-05-20T00:08:28.888Z,13.06
2019-05-20T00:10:57.446Z,12.99
2019-05-20T00:13:25.659Z,13.15
2019-05-20T00:15:54.642Z,13.04
2019-05-20T00:18:22.855Z,13.01
2019-05-20T00:20:51.057Z,13.09
2019-05-20T00:23:19.271Z,13.10
2019-05-20T00:25:47.467Z,12.86
2019-05-20T00:28:15.684Z,13.06
2019-05-20T00:30:44.174Z,12.75
2019-05-20T00:33:12.393Z,12.82
2019-05-20T00:35:40.587Z,12.77
2019-05-20T00:38:09.360Z,12.68
2019-05-20T00:40:37.898Z,12.74
2019-05-20T00:43:06.106Z,12.83
2019-05-20T00:45:34.706Z,12.97
2019-05-20T00:48:03.756Z,12.87
2019-05-20T00:50:33.412Z,12.74
2019-05-20T00:53:01.616Z,12.73
2019-05-20T00:55:30.212Z,12.70
2019-05-20T00:57:59.005Z,12.60
2019-05-20T01:00:27.300Z,12.54
2019-05-20T01:02:57.161Z,12.59
2019-05-20T01:05:25.494Z,12.74
2019-05-20T01:07:53.733Z,12.70
2019-05-20T01:10:22.524Z,12.47
2019-05-20T01:12:51.497Z,12.38
2019-05-20T01:15:19.720Z,12.28
2019-05-20T01:17:47.924Z,12.32
2019-05-20T01:20:16.130Z,12.46
2019-05-20T01:22:44.763Z,12.58
2019-05-20T01:25:13.042Z,12.68
2019-05-20T01:27:41.524Z,12.78
2019-05-20T01:30:10.480Z,12.51
2019-05-20T01:32:38.683Z,12.42
2019-05-20T01:35:07.685Z,12.54
2019-05-20T01:37:35.893Z,12.34
2019-05-20T01:40:04.271Z,12.28
2019-05-20T01:42:32.470Z,12.26
2019-05-20T01:45:00.697Z,12.17
2019-05-20T01:47:29.371Z,12.21
2019-05-20T01:49:58.909Z,12.23
2019-05-20T01:52:27.123Z,12.41
2019-05-20T01:54:55.338Z,12.43
2019-05-20T01:57:23.561Z,12.32
2019-05-20T01:59:52.096Z,12.44
2019-05-20T02:02:20.313Z,12.55
2019-05-20T02:04:48.521Z,12.50
2019-05-20T02:07:17.305Z,12.29
2019-05-20T02:09:46.284Z,12.31
2019-05-20T02:12:14.497Z,12.33
2019-05-20T02:15:02.575Z,12.32
2019-05-20T02:17:30.783Z,12.41
2019-05-20T02:19:59.849Z,12.17
2019-05-20T02:22:28.066Z,12.29
2019-05-20T02:24:56.305Z,12.18
2019-05-20T02:27:25.760Z,12.15
2019-05-20T02:29:53.959Z,12.09
2019-05-20T02:32:22.171Z,12.13
2019-05-20T02:34:50.944Z,11.93
2019-05-20T02:37:19.166Z,12.00
2019-05-20T02:39:47.366Z,11.90
2019-05-20T02:42:15.580Z,11.90
2019-05-20T02:44:44.557Z,11.76
2019-05-20T02:47:12.786Z,11.82
2019-05-20T02:49:40.987Z,11.73
2019-05-20T02:52:09.205Z,11.69
2019-05-20T02:54:37.980Z,11.80
2019-05-20T02:57:06.215Z,11.83
2019-05-20T02:59:34.392Z,11.77
2019-05-20T03:02:03.612Z,11.65
2019-05-20T03:04:31.809Z,11.44
2019-05-20T03:07:00.029Z,11.55
2019-05-20T03:09:28.236Z,11.49
2019-05-20T03:11:56.479Z,11.72
2019-05-20T03:14:24.691Z,11.89
2019-05-20T03:16:52.878Z,11.87
2019-05-20T03:19:21.091Z,11.97
2019-05-20T03:21:49.297Z,11.75
2019-05-20T03:24:17.503Z,11.73
2019-05-20T03:26:45.706Z,11.63
2019-05-20T03:29:14.097Z,11.63
2019-05-20T03:31:42.293Z,11.79
2019-05-20T03:34:38.925Z,11.80
2019-05-20T03:36:40.432Z,11.80
2019-05-20T03:39:08.646Z,11.62
2019-05-20T03:41:37.313Z,11.56
2019-05-20T03:44:05.524Z,11.57
2019-05-20T03:46:33.724Z,11.77
2019-05-20T03:49:01.946Z,11.58
2019-05-20T03:51:30.143Z,11.48
2019-05-20T03:53:58.361Z,11.55
2019-05-20T03:56:26.566Z,11.58
2019-05-20T03:58:54.810Z,11.74
2019-05-20T04:01:23.017Z,11.69
2019-05-20T04:03:51.231Z,11.50
2019-05-20T04:06:19.436Z,11.45
2019-05-20T04:08:47.650Z,11.46
2019-05-20T04:11:15.859Z,11.51
2019-05-20T04:13:44.072Z,11.61
2019-05-20T04:16:12.273Z,11.67
2019-05-20T04:18:40.490Z,11.62
2019-05-20T04:21:09.007Z,11.63
2019-05-20T04:23:37.314Z,11.72
2019-05-20T04:26:05.515Z,11.79
2019-05-20T04:28:33.742Z,11.97
2019-05-20T04:31:01.970Z,12.06
2019-05-20T04:33:30.832Z,12.15
2019-05-20T04:35:59.048Z,12.00
2019-05-20T04:38:27.489Z,12.03
2019-05-20T04:40:55.705Z,12.19
2019-05-20T04:43:23.901Z,12.15
2019-05-20T04:45:52.293Z,12.16
2019-05-20T04:48:20.800Z,12.29
2019-05-20T04:50:49.789Z,12.25
2019-05-20T04:53:18.761Z,12.38
2019-05-20T04:55:47.649Z,12.31
2019-05-20T04:58:15.856Z,12.41
2019-05-20T05:00:54.607Z,12.51
2019-05-20T05:03:22.987Z,12.68
2019-05-20T05:05:51.184Z,12.90
2019-05-20T05:08:22.048Z,13.04
2019-05-20T05:10:50.257Z,13.10
2019-05-20T05:13:18.455Z,13.19
2019-05-20T05:15:46.677Z,13.27
2019-05-20T05:18:14.963Z,13.34
2019-05-20T05:20:44.410Z,13.31
2019-05-20T05:23:12.612Z,13.38
2019-05-20T05:25:40.824Z,13.29
2019-05-20T05:28:09.034Z,13.21
2019-05-20T05:30:37.573Z,13.10
2019-05-20T05:33:05.772Z,13.10
2019-05-20T05:35:33.977Z,13.09
2019-05-20T05:38:02.902Z,13.17
2019-05-20T05:40:31.864Z,13.27
2019-05-20T05:43:00.075Z,13.24
2019-05-20T05:45:32.512Z,13.37
2019-05-20T05:48:00.805Z,13.48
2019-05-20T05:50:29.076Z,13.44
2019-05-20T05:52:57.299Z,13.60
2019-05-20T05:55:25.768Z,13.93
2019-05-20T05:57:53.995Z,14.17
2019-05-20T06:00:22.254Z,14.42
2019-05-20T06:02:50.469Z,14.63
2019-05-20T06:05:18.674Z,14.77
2019-05-20T06:07:47.579Z,14.85
2019-05-20T06:10:15.752Z,14.89
2019-05-20T06:12:44.754Z,14.89
2019-05-20T06:15:12.961Z,15.12
2019-05-20T06:17:41.171Z,15.40
2019-05-20T06:20:09.388Z,15.56
2019-05-20T06:22:38.359Z,15.74
2019-05-20T06:25:06.633Z,16.05
2019-05-20T06:27:34.840Z,16.26
2019-05-20T06:30:05.148Z,16.49
2019-05-20T06:32:32.817Z,16.57
2019-05-20T06:35:00.973Z,16.87
2019-05-20T06:37:36.792Z,16.79
2019-05-20T06:40:05.163Z,16.73
2019-05-20T06:42:33.362Z,16.67
2019-05-20T06:45:01.585Z,17.09
2019-05-20T06:47:29.864Z,17.45
2019-05-20T06:49:58.086Z,17.54
2019-05-20T06:52:35.388Z,17.08
2019-05-20T06:54:56.239Z,17.18
2019-05-20T06:57:24.449Z,17.32
2019-05-20T06:59:52.660Z,17.60
2019-05-20T07:02:20.867Z,17.96
2019-05-20T07:04:49.081Z,17.96
2019-05-20T07:07:21.187Z,18.01
2019-05-20T07:09:48.007Z,18.22
2019-05-20T07:12:16.203Z,18.13
2019-05-20T07:14:44.429Z,18.18
2019-05-20T07:17:12.636Z,18.11
2019-05-20T07:19:40.850Z,17.92
2019-05-20T07:22:09.055Z,18.19
2019-05-20T07:24:37.283Z,17.93
2019-05-20T07:27:05.493Z,17.90
2019-05-20T07:29:34.461Z,18.03
2019-05-20T07:32:03.625Z,18.13
2019-05-20T07:34:31.864Z,18.38
2019-05-20T07:37:03.768Z,18.56
2019-05-20T07:39:30.017Z,18.49
2019-05-20T07:41:58.219Z,18.72
2019-05-20T07:44:26.986Z,19.06
2019-05-20T07:46:55.224Z,18.91
2019-05-20T07:49:23.423Z,18.93
2019-05-20T07:51:51.643Z,18.79
2019-05-20T07:54:19.842Z,18.58
2019-05-20T07:56:48.064Z,18.67
2019-05-20T07:59:17.031Z,18.71
2019-05-20T08:01:45.253Z,18.57
2019-05-20T08:04:13.546Z,18.57
2019-05-20T08:06:42.041Z,18.70
2019-05-20T08:09:10.227Z,18.70
2019-05-20T08:11:38.472Z,18.39
2019-05-20T08:14:06.673Z,18.47
2019-05-20T08:16:34.895Z,18.63
2019-05-20T08:19:03.112Z,18.52
2019-05-20T08:21:32.081Z,18.52
2019-05-20T08:24:00.296Z,18.76
2019-05-20T08:26:28.544Z,18.95
2019-05-20T08:28:56.777Z,19.03
2019-05-20T08:31:25.005Z,18.65
2019-05-20T08:33:53.467Z,18.78
2019-05-20T08:36:22.343Z,18.96
2019-05-20T08:38:50.546Z,18.85
2019-05-20T08:41:18.740Z,19.23
2019-05-20T08:43:46.952Z,19.00
2019-05-20T08:46:15.153Z,18.63
2019-05-20T08:48:43.373Z,18.75
2019-05-20T08:51:12.339Z,19.27
2019-05-20T08:53:40.585Z,19.01
2019-05-20T08:56:08.859Z,18.91
2019-05-20T08:58:37.048Z,18.95
2019-05-20T09:01:05.848Z,19.00
2019-05-20T09:03:34.454Z,18.98
2019-05-20T09:06:02.742Z,18.94
2019-05-20T09:08:31.404Z,18.79
2019-05-20T09:10:59.866Z,19.12
2019-05-20T09:13:28.670Z,19.04
2019-05-20T09:15:56.860Z,18.94
2019-05-20T09:18:25.428Z,18.86
2019-05-20T09:20:53.623Z,18.78
2019-05-20T09:23:22.319Z,18.79
2019-05-20T09:25:50.507Z,18.85
2019-05-20T09:28:18.752Z,18.78
2019-05-20T09:30:46.946Z,18.81
2019-05-20T09:33:16.017Z,18.91
2019-05-20T09:35:44.394Z,19.16
2019-05-20T09:38:19.966Z,19.65
2019-05-20T09:40:47.841Z,19.76
2019-05-20T09:43:16.050Z,19.37
2019-05-20T09:45:44.266Z,19.31
2019-05-20T09:48:13.607Z,19.37
2019-05-20T09:50:42.588Z,19.06
2019-05-20T09:53:10.811Z,19.06
2019-05-20T09:55:39.772Z,19.17
2019-05-20T09:58:07.983Z,19.71
2019-05-20T10:00:36.209Z,19.69
2019-05-20T10:03:05.290Z,19.92
2019-05-20T10:05:37.195Z,19.90
2019-05-20T10:08:04.194Z,20.12
2019-05-20T10:10:32.409Z,20.06
2019-05-20T10:13:01.489Z,19.96
2019-05-20T10:15:30.032Z,20.07
2019-05-20T10:17:58.556Z,19.91
2019-05-20T10:20:26.756Z,20.28
2019-05-20T10:22:55.101Z,20.52
2019-05-20T10:25:23.375Z,20.35
2019-05-20T10:27:51.519Z,20.59
2019-05-20T10:30:19.733Z,20.73
2019-05-20T10:32:47.937Z,20.79
2019-05-20T10:35:16.164Z,20.89
2019-05-20T10:37:44.365Z,21.06
2019-05-20T10:40:12.595Z,21.33
2019-05-20T10:42:40.794Z,21.61
2019-05-20T10:45:09.012Z,21.30
2019-05-20T10:47:37.207Z,21.69
2019-05-20T10:50:06.727Z,21.75
2019-05-20T10:52:34.936Z,21.67
2019-05-20T10:55:03.904Z,21.37
2019-05-20T10:57:32.127Z,21.44
2019-05-20T11:00:00.331Z,21.38
2019-05-20T11:02:31.295Z,21.79
2019-05-20T11:04:58.510Z,21.97
2019-05-20T11:07:26.716Z,21.83
2019-05-20T11:09:54.926Z,21.87
2019-05-20T11:12:23.931Z,21.54
2019-05-20T11:14:52.136Z,21.98
2019-05-20T11:17:20.354Z,21.76
2019-05-20T11:19:48.555Z,21.23
2019-05-20T11:22:16.781Z,21.74
2019-05-20T11:24:45.280Z,21.85
2019-05-20T11:27:13.491Z,21.94
2019-05-20T11:29:42.041Z,22.08
2019-05-20T11:32:10.272Z,22.44
2019-05-20T11:34:38.563Z,22.55
2019-05-20T11:37:06.805Z,22.31
2019-05-20T11:39:35.034Z,22.00
2019-05-20T11:42:03.242Z,22.46
2019-05-20T11:44:31.441Z,22.00
2019-05-20T11:46:59.692Z,22.35
2019-05-20T11:49:29.322Z,22.54
2019-05-20T11:51:57.685Z,22.79
2019-05-20T11:54:25.900Z,22.52
2019-05-20T11:56:54.105Z,23.01
2019-05-20T11:59:22.315Z,22.86
2019-05-20T12:01:51.297Z,23.44
2019-05-20T12:04:19.506Z,23.50
2019-05-20T12:06:47.765Z,22.95
2019-05-20T12:09:15.973Z,22.63
2019-05-20T12:11:44.192Z,22.18
2019-05-20T12:14:12.959Z,21.82
2019-05-20T12:16:41.167Z,21.57
2019-05-20T12:19:09.385Z,21.54
2019-05-20T12:21:37.593Z,21.91
2019-05-20T12:24:05.811Z,22.19
2019-05-20T12:26:34.020Z,22.62
2019-05-20T12:29:02.244Z,22.46
2019-05-20T12:31:31.779Z,22.39
2019-05-20T12:34:00.672Z,22.61
2019-05-20T12:36:28.880Z,22.92
2019-05-20T12:38:57.098Z,23.36
2019-05-20T12:41:25.512Z,23.44
2019-05-20T12:44:11.073Z,22.99
2019-05-20T12:46:23.713Z,23.10
2019-05-20T12:48:51.955Z,22.97
2019-05-20T12:51:20.142Z,23.05
2019-05-20T12:53:48.351Z,22.80
2019-05-20T12:56:19.373Z,22.77
2019-05-20T12:58:46.522Z,21.94
2019-05-20T13:01:15.180Z,21.84
2019-05-20T13:03:43.404Z,22.18
2019-05-20T13:06:12.389Z,22.21
2019-05-20T13:08:40.582Z,22.38
2019-05-20T13:11:08.803Z,23.23
2019-05-20T13:13:36.996Z,23.81
2019-05-20T13:16:05.208Z,23.90
2019-05-20T13:18:33.409Z,23.80
2019-05-20T13:21:01.664Z,23.52
2019-05-20T13:23:29.895Z,23.51
2019-05-20T13:25:58.119Z,23.24
2019-05-20T13:28:26.630Z,23.17
2019-05-20T13:30:55.636Z,22.84
2019-05-20T13:33:23.821Z,22.20
2019-05-20T13:35:52.604Z,22.22
2019-05-20T13:38:20.809Z,21.82
2019-05-20T13:40:49.024Z,21.80
2019-05-20T13:43:17.228Z,21.77
2019-05-20T13:45:47.989Z,22.13
2019-05-20T13:48:15.385Z,22.14
2019-05-20T13:50:43.758Z,21.91
2019-05-20T13:53:12.055Z,21.63
2019-05-20T13:55:40.336Z,21.93
2019-05-20T13:58:08.548Z,22.00
2019-05-20T14:00:36.747Z,22.16
2019-05-20T14:03:04.963Z,22.46
2019-05-20T14:05:33.169Z,23.05
2019-05-20T14:08:01.405Z,23.34
2019-05-20T14:10:29.582Z,23.66
2019-05-20T14:12:58.473Z,24.00
2019-05-20T14:15:26.686Z,23.67
2019-05-20T14:17:54.937Z,23.42
2019-05-20T14:20:23.161Z,23.25
2019-05-20T14:22:51.490Z,22.82
2019-05-20T14:25:19.699Z,22.38
2019-05-20T14:27:47.908Z,22.60
2019-05-20T14:30:16.104Z,22.51
2019-05-20T14:32:44.617Z,22.28
2019-05-20T14:35:12.806Z,22.30
2019-05-20T14:37:41.595Z,22.59
2019-05-20T14:40:10.056Z,22.39
2019-05-20T14:42:38.331Z,22.32
2019-05-20T14:45:06.824Z,21.95
2019-05-20T14:47:35.036Z,22.06
2019-05-20T14:50:05.110Z,21.74
2019-05-20T14:52:33.340Z,21.33
2019-05-20T14:55:01.549Z,20.86
2019-05-20T14:57:29.768Z,21.05
2019-05-20T14:59:57.991Z,20.97
2019-05-20T15:02:30.529Z,20.79
2019-05-20T15:04:56.121Z,20.61
2019-05-20T15:07:30.208Z,20.64
2019-05-20T15:09:54.284Z,20.88
2019-05-20T15:12:23.167Z,20.77
2019-05-20T15:14:51.368Z,20.41
2019-05-20T15:17:19.577Z,20.14
2019-05-20T15:19:47.792Z,19.86
2019-05-20T15:22:16.003Z,19.70
2019-05-20T15:24:44.220Z,19.32
2019-05-20T15:27:12.502Z,19.00
2019-05-20T15:29:40.805Z,18.18
2019-05-20T15:32:09.005Z,18.18
2019-05-20T15:34:37.213Z,17.40
2019-05-20T15:37:05.939Z,17.13
2019-05-20T15:39:34.147Z,16.90
2019-05-20T15:42:02.674Z,16.60
2019-05-20T15:44:30.928Z,16.46
2019-05-20T15:46:59.274Z,16.29
2019-05-20T15:49:28.231Z,16.24
2019-05-20T15:51:56.428Z,15.95
2019-05-20T15:54:24.709Z,15.85
2019-05-20T15:56:52.910Z,15.67
2019-05-20T15:59:21.116Z,15.70
2019-05-20T16:01:49.311Z,15.69
2019-05-20T16:04:17.527Z,15.58
2019-05-20T16:06:45.730Z,15.24
2019-05-20T16:09:17.037Z,15.00
2019-05-20T16:11:44.581Z,14.91
2019-05-20T16:14:12.806Z,14.89
2019-05-20T16:16:41.493Z,15.05
2019-05-20T16:19:09.718Z,15.23
2019-05-20T16:21:37.923Z,15.34
2019-05-20T16:24:06.250Z,15.33
2019-05-20T16:26:34.464Z,15.39
2019-05-20T16:29:02.661Z,15.43
2019-05-20T16:31:30.846Z,15.51
2019-05-20T16:33:59.738Z,15.50
2019-05-20T16:36:28.605Z,15.52
2019-05-20T16:38:56.834Z,15.48
2019-05-20T16:41:25.075Z,15.45
2019-05-20T16:43:53.551Z,15.53
2019-05-20T16:46:22.040Z,15.71
2019-05-20T16:48:50.228Z,15.73
2019-05-20T16:51:21.960Z,15.68
2019-05-20T16:53:48.608Z,15.70
2019-05-20T16:56:16.814Z,15.67
2019-05-20T16:58:45.014Z,15.65
2019-05-20T17:01:13.209Z,15.66
2019-05-20T17:03:41.412Z,15.55
2019-05-20T17:06:10.294Z,15.58
2019-05-20T17:08:38.795Z,15.69
2019-05-20T17:11:07.000Z,15.74
2019-05-20T17:13:35.199Z,15.76
2019-05-20T17:16:03.418Z,15.61
2019-05-20T17:18:31.609Z,15.52
2019-05-20T17:20:59.826Z,15.49
2019-05-20T17:23:28.582Z,15.42
2019-05-20T17:25:56.803Z,15.33
2019-05-20T17:28:25.020Z,15.29
2019-05-20T17:30:53.237Z,15.31
2019-05-20T17:33:21.442Z,15.51
2019-05-20T17:35:49.651Z,15.64
2019-05-20T17:38:17.850Z,15.66
2019-05-20T17:40:46.069Z,15.73
2019-05-20T17:43:14.956Z,15.77
2019-05-20T17:45:43.161Z,15.78
2019-05-20T17:48:11.384Z,15.69
2019-05-20T17:50:39.580Z,15.50
2019-05-20T17:53:08.561Z,15.34
2019-05-20T17:55:36.822Z,15.26
2019-05-20T17:58:05.004Z,15.14
2019-05-20T18:00:33.206Z,15.09
2019-05-20T18:03:01.416Z,14.77
2019-05-20T18:05:30.214Z,14.47
2019-05-20T18:07:58.434Z,14.32
2019-05-20T18:10:26.638Z,14.41
2019-05-20T18:12:54.856Z,14.57
2019-05-20T18:15:25.171Z,14.53
2019-05-20T18:17:53.855Z,14.62
2019-05-20T18:20:22.081Z,14.81
2019-05-20T18:22:50.328Z,15.00
2019-05-20T18:25:18.526Z,15.07
2019-05-20T18:27:46.751Z,15.03
2019-05-20T18:30:14.962Z,14.75
2019-05-20T18:32:43.169Z,14.75
2019-05-20T18:35:11.370Z,14.78
2019-05-20T18:37:39.583Z,14.69
2019-05-20T18:40:13.833Z,14.61
2019-05-20T18:42:38.620Z,14.52
2019-05-20T18:45:07.374Z,14.48
2019-05-20T18:47:36.252Z,14.72
2019-05-20T18:50:07.568Z,14.73
2019-05-20T18:52:35.782Z,14.80
2019-05-20T18:55:04.550Z,14.80
2019-05-20T18:57:32.785Z,14.77
2019-05-20T19:00:01.593Z,15.11
2019-05-20T19:02:30.044Z,15.21
2019-05-20T19:04:58.300Z,15.07
2019-05-20T19:07:26.844Z,14.87
2019-05-20T19:09:55.062Z,14.64
2019-05-20T19:12:23.303Z,14.64
2019-05-20T19:14:51.547Z,14.75
2019-05-20T19:17:19.715Z,14.87
2019-05-20T19:19:47.921Z,14.88
2019-05-20T19:22:16.127Z,14.93
2019-05-20T19:24:44.332Z,14.88
2019-05-20T19:27:12.548Z,14.94
2019-05-20T19:29:40.743Z,15.13
2019-05-20T19:32:10.504Z,15.16
2019-05-20T19:34:38.828Z,15.13
2019-05-20T19:37:07.441Z,15.34
2019-05-20T19:39:35.645Z,15.40
2019-05-20T19:42:04.188Z,15.43
2019-05-20T19:44:32.465Z,15.35
2019-05-20T19:47:00.671Z,15.40
2019-05-20T19:49:28.890Z,15.41
2019-05-20T19:51:57.123Z,15.50
2019-05-20T19:54:25.349Z,15.57
2019-05-20T19:56:53.549Z,15.67
2019-05-20T19:59:21.764Z,15.43
2019-05-20T20:01:49.963Z,15.30
2019-05-20T20:04:18.215Z,15.31
2019-05-20T20:06:46.854Z,15.17
2019-05-20T20:09:15.057Z,15.04
2019-05-20T20:11:43.287Z,15.17
2019-05-20T20:14:12.264Z,15.26
2019-05-20T20:16:40.469Z,15.30
2019-05-20T20:19:08.701Z,15.36
2019-05-20T20:21:36.891Z,15.33
2019-05-20T20:24:05.091Z,15.36
2019-05-20T20:26:33.292Z,15.29
2019-05-20T20:29:01.573Z,15.27
2019-05-20T20:31:29.724Z,15.22
2019-05-20T20:33:57.948Z,15.16
2019-05-20T20:36:26.314Z,15.17
2019-05-20T20:38:54.532Z,15.08
2019-05-20T20:41:22.746Z,15.14
2019-05-20T20:43:50.946Z,15.13
2019-05-20T20:46:19.146Z,15.02
2019-05-20T20:48:47.353Z,14.96
2019-05-20T20:51:16.123Z,15.01
2019-05-20T20:53:44.339Z,15.05
2019-05-20T20:56:24.822Z,15.17
2019-05-20T20:58:43.152Z,15.13
2019-05-20T21:01:11.358Z,15.07
2019-05-20T21:03:39.600Z,14.89
2019-05-20T21:06:07.798Z,15.13
2019-05-20T21:08:36.010Z,14.89
2019-05-20T21:11:04.217Z,14.91
2019-05-20T21:13:32.431Z,14.96
2019-05-20T21:16:01.112Z,14.89
2019-05-20T21:18:29.315Z,14.98
2019-05-20T21:20:57.516Z,15.09
2019-05-20T21:23:25.961Z,15.10
2019-05-20T21:25:54.165Z,15.18
2019-05-20T21:28:22.376Z,15.20
2019-05-20T21:30:50.597Z,15.24
2019-05-20T21:33:18.862Z,15.33
2019-05-20T21:35:47.058Z,15.37
2019-05-20T21:38:15.277Z,15.42
2019-05-20T21:40:43.475Z,15.45
2019-05-20T21:43:11.686Z,15.47
2019-05-20T21:45:39.893Z,15.45
2019-05-20T21:48:08.377Z,15.49
2019-05-20T21:50:36.590Z,15.47
2019-05-20T21:53:04.794Z,15.48
2019-05-20T21:55:33.270Z,15.48
2019-05-20T21:58:01.478Z,15.51
2019-05-20T22:00:43.752Z,15.39
2019-05-20T22:03:24.002Z,15.32
2019-05-20T22:05:42.250Z,15.31
2019-05-20T22:08:11.023Z,15.27
2019-05-20T22:10:39.233Z,15.28
2019-05-20T22:13:07.436Z,15.26
2019-05-20T22:15:35.654Z,15.19
2019-05-20T22:18:04.196Z,15.12
2019-05-20T22:20:32.971Z,15.02
2019-05-20T22:23:14.675Z,14.99
2019-05-20T22:25:42.886Z,15.02
2019-05-20T22:28:12.878Z,14.97
2019-05-20T22:30:41.843Z,14.93
2019-05-20T22:33:09.998Z,14.84
2019-05-20T22:35:38.221Z,14.83
2019-05-20T22:38:06.416Z,14.87
2019-05-20T22:40:34.627Z,14.77
2019-05-20T22:43:02.835Z,14.73
2019-05-20T22:45:31.632Z,14.69
2019-05-20T22:47:59.831Z,14.62
2019-05-20T22:50:28.044Z,14.65
2019-05-20T22:52:56.246Z,14.52
2019-05-20T22:55:24.457Z,14.49
2019-05-20T22:57:52.659Z,14.41
2019-05-20T23:00:20.872Z,14.45
2019-05-20T23:02:49.145Z,14.47
2019-05-20T23:05:17.354Z,14.40
2019-05-20T23:07:45.559Z,14.44
2019-05-20T23:10:13.775Z,14.34
2019-05-20T23:12:42.301Z,14.33
2019-05-20T23:15:10.955Z,14.39
2019-05-20T23:17:39.154Z,14.40
2019-05-20T23:20:07.708Z,14.40
2019-05-20T23:22:35.907Z,14.40
2019-05-20T23:25:04.658Z,14.40
2019-05-20T23:27:32.862Z,14.41
2019-05-20T23:30:01.074Z,14.36
2019-05-20T23:32:29.280Z,14.39
2019-05-20T23:34:57.497Z,14.46
2019-05-20T23:37:25.700Z,14.43
2019-05-20T23:39:53.909Z,14.41
2019-05-20T23:42:22.114Z,14.39
2019-05-20T23:44:50.990Z,14.39
2019-05-20T23:47:19.187Z,14.35
2019-05-20T23:49:47.395Z,14.36
2019-05-20T23:55:57.264Z,14.34
2019-05-20T23:58:26.136Z,14.37
